createdAt,value
2023-05-21T00:01:37.433Z,5.50
2023-05-21T00:04:29.898Z,5.05
2023-05-21T00:07:18.801Z,5.03
2023-05-21T00:10:08.536Z,4.55
2023-05-21T00:12:57.168Z,4.60
2023-05-21T00:15:46.012Z,4.82
2023-05-21T00:18:34.763Z,5.13
2023-05-21T00:21:26.286Z,4.28
2023-05-21T00:24:15.213Z,4.82
2023-05-21T00:27:04.423Z,4.80
2023-05-21T00:29:56.555Z,4.82
2023-05-21T00:32:45.279Z,4.63
2023-05-21T00:35:34.323Z,4.38
2023-05-21T00:38:27.958Z,4.32
2023-05-21T00:41:17.685Z,5.07
2023-05-21T00:44:07.003Z,4.70
2023-05-21T00:46:56.262Z,5.03
2023-05-21T00:49:45.432Z,4.65
2023-05-21T00:52:41.612Z,4.88
2023-05-21T00:55:32.308Z,4.40
2023-05-21T00:58:21.396Z,4.22
2023-05-21T01:01:13.736Z,4.63
2023-05-21T01:04:03.197Z,4.40
2023-05-21T01:06:53.559Z,4.13
2023-05-21T01:09:42.963Z,4.43
2023-05-21T01:12:34.498Z,4.53
2023-05-21T01:15:23.563Z,4.85
2023-05-21T01:18:14.396Z,4.25
2023-05-21T01:21:03.552Z,4.53
2023-05-21T01:23:54.044Z,4.38
2023-05-21T01:26:44.374Z,4.32
2023-05-21T01:29:33.599Z,4.75
2023-05-21T01:32:31.179Z,4.32
2023-05-21T01:35:23.556Z,3.90
2023-05-21T01:38:19.762Z,4.03
2023-05-21T01:41:13.781Z,4.20
2023-05-21T01:44:04.220Z,4.10
2023-05-21T01:46:54.838Z,3.95
2023-05-21T01:49:43.959Z,4.32
2023-05-21T01:52:33.268Z,4.10
2023-05-21T01:55:24.946Z,4.38
2023-05-21T01:58:16.154Z,4.45
2023-05-21T02:01:05.163Z,4.10
2023-05-21T02:03:58.183Z,4.20
2023-05-21T02:06:47.800Z,4.07
2023-05-21T02:09:36.632Z,3.83
2023-05-21T02:12:25.319Z,3.80
2023-05-21T02:15:18.223Z,4.10
2023-05-21T02:18:07.125Z,3.70
2023-05-21T02:20:56.437Z,3.95
2023-05-21T02:23:45.492Z,3.95
2023-05-21T02:26:34.234Z,3.80
2023-05-21T02:29:23.055Z,3.95
2023-05-21T02:32:13.104Z,3.55
2023-05-21T02:35:03.794Z,3.88
2023-05-21T02:37:52.522Z,4.00
2023-05-21T02:40:41.261Z,3.53
2023-05-21T02:43:30.071Z,4.00
2023-05-21T02:46:18.914Z,4.13
2023-05-21T02:49:09.090Z,4.22
2023-05-21T02:51:57.782Z,4.00
2023-05-21T02:54:46.526Z,4.13
2023-05-21T02:57:35.398Z,4.43
2023-05-21T03:00:24.037Z,4.03
2023-05-21T03:03:12.965Z,4.40
2023-05-21T03:06:03.390Z,4.43
2023-05-21T03:08:52.148Z,4.65
2023-05-21T03:11:40.982Z,3.90
2023-05-21T03:14:29.938Z,4.30
2023-05-21T03:17:19.128Z,4.28
2023-05-21T03:20:16.099Z,4.28
2023-05-21T03:23:06.780Z,3.83
2023-05-21T03:25:55.484Z,4.30
2023-05-21T03:28:44.380Z,4.28
2023-05-21T03:31:37.458Z,3.92
2023-05-21T03:34:34.547Z,3.95
2023-05-21T03:37:24.281Z,3.83
2023-05-21T03:40:15.421Z,3.95
2023-05-21T03:43:04.256Z,3.90
2023-05-21T03:45:53.221Z,4.00
2023-05-21T03:49:04.936Z,4.07
2023-05-21T03:51:55.377Z,4.20
2023-05-21T03:54:45.021Z,4.07
2023-05-21T03:57:35.434Z,4.22
2023-05-21T04:00:24.857Z,4.20
2023-05-21T04:03:15.467Z,4.10
2023-05-21T04:06:04.910Z,4.13
2023-05-21T04:08:53.704Z,4.70
2023-05-21T04:11:42.965Z,4.97
2023-05-21T04:14:34.341Z,4.70
2023-05-21T04:17:23.051Z,4.00
2023-05-21T04:20:13.811Z,4.38
2023-05-21T04:23:03.085Z,3.75
2023-05-21T04:25:52.439Z,4.20
2023-05-21T04:28:42.270Z,4.00
2023-05-21T04:31:34.157Z,4.00
2023-05-21T04:34:25.049Z,3.95
2023-05-21T04:37:14.012Z,4.05
2023-05-21T04:40:03.356Z,3.92
2023-05-21T04:42:52.529Z,4.05
2023-05-21T04:45:45.231Z,3.75
2023-05-21T04:48:36.081Z,3.78
2023-05-21T04:51:27.839Z,3.72
2023-05-21T04:54:16.788Z,3.47
2023-05-21T04:57:05.833Z,4.30
2023-05-21T04:59:56.416Z,3.30
2023-05-21T05:02:45.153Z,3.65
2023-05-21T05:05:35.901Z,3.58
2023-05-21T05:08:24.904Z,3.70
2023-05-21T05:11:14.133Z,3.55
2023-05-21T05:14:03.476Z,3.20
2023-05-21T05:16:52.511Z,3.15
2023-05-21T05:19:41.715Z,3.30
2023-05-21T05:22:32.221Z,3.13
2023-05-21T05:25:21.233Z,3.13
2023-05-21T05:28:10.075Z,3.20
2023-05-21T05:30:58.837Z,3.08
2023-05-21T05:33:49.435Z,3.63
2023-05-21T05:36:38.482Z,2.92
2023-05-21T05:39:28.705Z,3.20
2023-05-21T05:42:17.469Z,3.45
2023-05-21T05:45:08.467Z,2.97
2023-05-21T05:47:57.356Z,3.08
2023-05-21T05:50:47.361Z,3.08
2023-05-21T05:53:36.700Z,2.70
2023-05-21T05:56:27.222Z,2.97
2023-05-21T05:59:16.610Z,2.95
2023-05-21T06:02:09.504Z,2.83
2023-05-21T06:04:59.052Z,2.70
2023-05-21T06:07:47.919Z,3.00
2023-05-21T06:10:37.066Z,2.70
2023-05-21T06:13:28.315Z,2.85
2023-05-21T06:16:17.666Z,2.50
2023-05-21T06:19:07.076Z,3.05
2023-05-21T06:21:55.894Z,2.60
2023-05-21T06:24:44.729Z,2.70
2023-05-21T06:27:34.600Z,2.60
2023-05-21T06:30:25.954Z,2.67
2023-05-21T06:33:15.205Z,2.22
2023-05-21T06:36:04.949Z,2.88
2023-05-21T06:38:54.062Z,2.80
2023-05-21T06:41:42.997Z,2.50
2023-05-21T06:45:01.552Z,2.67
2023-05-21T06:47:54.534Z,2.40
2023-05-21T06:50:43.334Z,2.65
2023-05-21T06:53:32.416Z,2.50
2023-05-21T06:56:22.151Z,2.65
2023-05-21T06:59:11.019Z,2.60
2023-05-21T07:02:00.983Z,2.30
2023-05-21T07:04:53.828Z,2.40
2023-05-21T07:07:42.506Z,2.50
2023-05-21T07:10:31.225Z,2.20
2023-05-21T07:13:20.153Z,2.30
2023-05-21T07:16:09.550Z,2.30
2023-05-21T07:19:00.278Z,2.72
2023-05-21T07:21:50.869Z,2.45
2023-05-21T07:24:39.843Z,2.60
2023-05-21T07:27:28.656Z,2.35
2023-05-21T07:30:18.050Z,2.22
2023-05-21T07:33:07.019Z,2.42
2023-05-21T07:35:56.118Z,2.45
2023-05-21T07:38:46.964Z,2.58
2023-05-21T07:41:35.925Z,2.30
2023-05-21T07:44:28.594Z,2.15
2023-05-21T07:47:18.157Z,2.50
2023-05-21T07:50:08.163Z,2.22
2023-05-21T07:52:57.328Z,2.50
2023-05-21T07:55:48.921Z,2.50
2023-05-21T07:58:41.644Z,2.60
2023-05-21T08:01:31.180Z,2.80
2023-05-21T08:04:20.450Z,2.47
2023-05-21T08:07:09.886Z,2.75
2023-05-21T08:10:02.784Z,2.65
2023-05-21T08:12:54.449Z,2.38
2023-05-21T08:15:44.536Z,2.42
2023-05-21T08:18:34.138Z,2.45
2023-05-21T08:21:23.904Z,2.60
2023-05-21T08:24:12.677Z,2.45
2023-05-21T08:27:01.953Z,2.72
2023-05-21T08:29:54.013Z,2.60
2023-05-21T08:32:43.130Z,2.50
2023-05-21T08:35:33.721Z,2.72
2023-05-21T08:38:57.779Z,2.50
2023-05-21T08:42:06.040Z,2.53
2023-05-21T08:45:00.812Z,2.50
2023-05-21T08:47:49.719Z,2.63
2023-05-21T08:50:39.472Z,2.45
2023-05-21T08:53:35.575Z,2.85
2023-05-21T08:56:27.169Z,2.75
2023-05-21T08:59:22.102Z,2.47
2023-05-21T09:02:14.340Z,2.40
2023-05-21T09:05:04.634Z,2.35
2023-05-21T09:08:02.380Z,2.80
2023-05-21T09:11:17.469Z,2.60
2023-05-21T09:14:13.935Z,2.10
2023-05-21T09:17:22.066Z,2.70
2023-05-21T09:20:25.990Z,2.67
2023-05-21T09:23:20.291Z,2.65
2023-05-21T09:26:14.116Z,2.70
2023-05-21T09:29:03.876Z,2.47
2023-05-21T09:31:54.985Z,2.53
2023-05-21T09:34:45.149Z,2.20
2023-05-21T09:37:37.721Z,2.55
2023-05-21T09:40:26.646Z,2.55
2023-05-21T09:43:17.094Z,2.50
2023-05-21T09:46:06.025Z,2.45
2023-05-21T09:48:55.285Z,2.67
2023-05-21T09:51:46.100Z,2.50
2023-05-21T09:54:36.540Z,2.67
2023-05-21T09:57:26.556Z,2.65
2023-05-21T10:00:25.283Z,2.38
2023-05-21T10:03:17.232Z,2.17
2023-05-21T10:06:08.863Z,2.25
2023-05-21T10:09:05.648Z,2.70
2023-05-21T10:11:56.240Z,2.40
2023-05-21T10:14:50.767Z,2.65
2023-05-21T10:17:40.701Z,2.33
2023-05-21T10:20:30.206Z,2.40
2023-05-21T10:23:19.732Z,2.63
2023-05-21T10:26:10.948Z,2.38
2023-05-21T10:29:00.906Z,2.75
2023-05-21T10:31:52.595Z,2.25
2023-05-21T10:34:41.748Z,2.45
2023-05-21T10:37:31.199Z,3.08
2023-05-21T10:40:19.994Z,2.53
2023-05-21T10:43:32.700Z,2.00
2023-05-21T10:46:57.920Z,2.17
2023-05-21T10:50:04.987Z,2.30
2023-05-21T10:53:09.948Z,2.35
2023-05-21T10:56:12.582Z,2.10
2023-05-21T10:59:21.962Z,2.28
2023-05-21T11:02:12.159Z,2.45
2023-05-21T11:05:02.417Z,2.28
2023-05-21T11:07:58.042Z,2.33
2023-05-21T11:10:53.479Z,2.20
2023-05-21T11:13:49.955Z,2.38
2023-05-21T11:16:47.630Z,2.78
2023-05-21T11:19:42.267Z,2.33
2023-05-21T11:22:31.086Z,2.13
2023-05-21T11:25:20.381Z,2.20
2023-05-21T11:28:09.756Z,2.20
2023-05-21T11:31:29.941Z,2.30
2023-05-21T11:34:28.603Z,2.08
2023-05-21T11:37:32.136Z,2.10
2023-05-21T11:40:30.277Z,2.17
2023-05-21T11:43:20.375Z,2.38
2023-05-21T11:46:13.466Z,2.00
2023-05-21T11:49:04.215Z,2.30
2023-05-21T11:51:54.389Z,2.17
2023-05-21T11:54:46.546Z,2.25
2023-05-21T11:57:35.394Z,2.45
2023-05-21T12:00:24.477Z,2.22
2023-05-21T12:03:16.634Z,2.20
2023-05-21T12:06:06.815Z,2.08
2023-05-21T12:08:58.551Z,2.10
2023-05-21T12:11:47.440Z,2.50
2023-05-21T12:14:36.422Z,1.88
2023-05-21T12:17:26.502Z,2.38
2023-05-21T12:20:17.208Z,2.42
2023-05-21T12:23:06.134Z,2.10
2023-05-21T12:25:56.410Z,2.00
2023-05-21T12:28:45.889Z,1.90
2023-05-21T12:31:34.757Z,2.10
2023-05-21T12:34:40.779Z,2.45
2023-05-21T12:37:31.460Z,1.85
2023-05-21T12:40:21.073Z,2.00
2023-05-21T12:43:11.654Z,1.92
2023-05-21T12:46:00.777Z,1.77
2023-05-21T12:48:56.348Z,1.98
2023-05-21T12:51:47.041Z,2.30
2023-05-21T12:54:37.395Z,2.42
2023-05-21T12:57:29.674Z,2.10
2023-05-21T13:00:25.198Z,2.50
2023-05-21T13:03:14.634Z,2.13
2023-05-21T13:06:03.943Z,2.35
2023-05-21T13:08:52.740Z,2.42
2023-05-21T13:11:41.942Z,2.70
2023-05-21T13:14:30.841Z,2.65
2023-05-21T13:17:21.725Z,2.50
2023-05-21T13:20:12.585Z,2.50
2023-05-21T13:23:03.975Z,2.95
2023-05-21T13:25:54.458Z,2.90
2023-05-21T13:28:43.266Z,2.58
2023-05-21T13:31:32.289Z,2.53
2023-05-21T13:34:22.320Z,2.60
2023-05-21T13:37:11.051Z,2.30
2023-05-21T13:39:59.856Z,2.30
2023-05-21T13:42:50.537Z,2.08
2023-05-21T13:45:39.318Z,2.40
2023-05-21T13:48:28.239Z,2.60
2023-05-21T13:51:37.154Z,2.47
2023-05-21T13:54:27.356Z,2.40
2023-05-21T13:57:16.660Z,2.55
2023-05-21T14:00:06.561Z,2.40
2023-05-21T14:02:58.348Z,2.58
2023-05-21T14:05:48.495Z,2.28
2023-05-21T14:08:38.602Z,2.30
2023-05-21T14:11:28.045Z,2.25
2023-05-21T14:14:19.181Z,2.25
2023-05-21T14:17:08.205Z,2.90
2023-05-21T14:19:57.113Z,2.63
2023-05-21T14:22:46.404Z,2.05
2023-05-21T14:25:37.516Z,2.20
2023-05-21T14:28:26.460Z,2.65
2023-05-21T14:31:18.690Z,2.60
2023-05-21T14:34:08.847Z,2.30
2023-05-21T14:36:58.826Z,2.65
2023-05-21T14:39:47.721Z,2.20
2023-05-21T14:42:38.150Z,2.28
2023-05-21T14:45:26.923Z,2.28
2023-05-21T14:48:15.868Z,2.60
2023-05-21T14:51:04.734Z,2.40
2023-05-21T14:53:53.767Z,2.35
2023-05-21T14:56:42.681Z,2.30
2023-05-21T14:59:36.639Z,2.65
2023-05-21T15:02:25.769Z,2.58
2023-05-21T15:05:14.859Z,2.42
2023-05-21T15:08:06.123Z,2.47
2023-05-21T15:10:54.876Z,2.25
2023-05-21T15:13:43.692Z,2.38
2023-05-21T15:16:37.180Z,2.38
2023-05-21T15:19:27.495Z,2.65
2023-05-21T15:22:16.443Z,2.45
2023-05-21T15:25:05.938Z,2.25
2023-05-21T15:27:54.830Z,2.70
2023-05-21T15:30:43.847Z,2.60
2023-05-21T15:33:34.251Z,2.35
2023-05-21T15:36:23.122Z,3.17
2023-05-21T15:39:11.879Z,3.17
2023-05-21T15:42:00.973Z,2.78
2023-05-21T15:44:49.736Z,2.85
2023-05-21T15:47:42.687Z,2.20
2023-05-21T15:50:35.594Z,2.63
2023-05-21T15:53:24.608Z,2.28
2023-05-21T15:56:13.250Z,2.60
2023-05-21T15:59:02.255Z,2.60
2023-05-21T16:01:50.857Z,2.15
2023-05-21T16:04:39.718Z,2.78
2023-05-21T16:07:29.826Z,2.28
2023-05-21T16:10:18.859Z,2.90
2023-05-21T16:13:07.684Z,2.58
2023-05-21T16:15:56.503Z,2.45
2023-05-21T16:18:45.696Z,2.25
2023-05-21T16:21:34.517Z,2.40
2023-05-21T16:24:24.732Z,2.28
2023-05-21T16:27:13.765Z,2.63
2023-05-21T16:30:02.472Z,2.72
2023-05-21T16:32:51.337Z,2.20
2023-05-21T16:35:40.017Z,2.78
2023-05-21T16:38:28.817Z,2.78
2023-05-21T16:41:19.179Z,2.58
2023-05-21T16:44:11.425Z,2.97
2023-05-21T16:47:02.278Z,2.70
2023-05-21T16:49:51.118Z,2.60
2023-05-21T16:52:40.706Z,2.70
2023-05-21T16:55:29.684Z,2.38
2023-05-21T16:58:19.973Z,2.50
2023-05-21T17:01:09.204Z,2.83
2023-05-21T17:03:58.504Z,2.88
2023-05-21T17:06:47.473Z,2.40
2023-05-21T17:09:36.550Z,2.50
2023-05-21T17:12:26.353Z,2.22
2023-05-21T17:15:16.587Z,2.83
2023-05-21T17:18:05.354Z,3.10
2023-05-21T17:20:56.111Z,2.42
2023-05-21T17:23:44.931Z,2.47
2023-05-21T17:26:34.296Z,2.60
2023-05-21T17:29:23.055Z,2.70
2023-05-21T17:32:13.759Z,2.45
2023-05-21T17:35:02.707Z,2.85
2023-05-21T17:37:54.956Z,2.78
2023-05-21T17:40:43.876Z,2.58
2023-05-21T17:43:34.247Z,2.97
2023-05-21T17:46:23.264Z,2.55
2023-05-21T17:49:13.684Z,2.72
2023-05-21T17:52:04.606Z,2.80
2023-05-21T17:54:53.404Z,3.00
2023-05-21T17:57:42.294Z,2.70
2023-05-21T18:00:32.241Z,2.90
2023-05-21T18:03:21.057Z,3.00
2023-05-21T18:06:11.189Z,3.20
2023-05-21T18:09:00.254Z,3.63
2023-05-21T18:11:49.134Z,3.40
2023-05-21T18:14:38.045Z,3.47
2023-05-21T18:17:26.877Z,3.08
2023-05-21T18:20:15.901Z,3.10
2023-05-21T18:23:06.500Z,3.35
2023-05-21T18:25:55.286Z,3.10
2023-05-21T18:28:44.132Z,3.08
2023-05-21T18:31:33.221Z,3.40
2023-05-21T18:34:22.726Z,3.10
2023-05-21T18:37:11.850Z,3.38
2023-05-21T18:40:02.217Z,3.70
2023-05-21T18:42:51.348Z,3.55
2023-05-21T18:45:40.151Z,3.33
2023-05-21T18:48:29.194Z,3.60
2023-05-21T18:51:18.114Z,3.55
2023-05-21T18:54:08.641Z,4.07
2023-05-21T18:57:00.590Z,3.85
2023-05-21T18:59:49.716Z,4.00
2023-05-21T19:02:38.640Z,4.03
2023-05-21T19:05:27.663Z,4.00
2023-05-21T19:08:16.444Z,3.80
2023-05-21T19:11:05.213Z,3.75
2023-05-21T19:13:55.347Z,3.75
2023-05-21T19:16:48.236Z,3.63
2023-05-21T19:19:37.144Z,3.70
2023-05-21T19:22:26.497Z,4.05
2023-05-21T19:25:15.464Z,4.05
2023-05-21T19:28:04.283Z,3.90
2023-05-21T19:30:54.468Z,4.40
2023-05-21T19:33:43.282Z,4.05
2023-05-21T19:36:48.502Z,4.00
2023-05-21T19:39:42.511Z,4.05
2023-05-21T19:42:31.387Z,4.13
2023-05-21T19:45:24.046Z,4.20
2023-05-21T19:48:14.611Z,4.47
2023-05-21T19:51:03.596Z,4.28
2023-05-21T19:53:52.303Z,4.07
2023-05-21T19:56:41.149Z,5.47
2023-05-21T19:59:30.043Z,4.80
2023-05-21T20:02:19.238Z,4.43
2023-05-21T20:05:10.512Z,4.93
2023-05-21T20:07:59.359Z,4.78
2023-05-21T20:10:50.517Z,5.10
2023-05-21T20:13:41.385Z,5.07
2023-05-21T20:16:30.243Z,5.40
2023-05-21T20:19:20.634Z,5.97
2023-05-21T20:22:11.061Z,5.90
2023-05-21T20:25:02.257Z,5.70
2023-05-21T20:27:50.993Z,6.00
2023-05-21T20:30:54.292Z,6.00
2023-05-21T20:33:43.416Z,5.88
2023-05-21T20:36:34.066Z,6.03
2023-05-21T20:39:24.736Z,5.25
2023-05-21T20:42:15.034Z,5.43
2023-05-21T20:45:04.783Z,5.38
2023-05-21T20:47:53.666Z,4.68
2023-05-21T20:50:44.220Z,4.35
2023-05-21T20:53:34.076Z,4.68
2023-05-21T20:56:37.487Z,4.65
2023-05-21T20:59:30.933Z,5.00
2023-05-21T21:02:20.593Z,4.60
2023-05-21T21:05:10.643Z,4.15
2023-05-21T21:08:03.596Z,4.55
2023-05-21T21:10:52.347Z,4.30
2023-05-21T21:13:43.002Z,4.65
2023-05-21T21:16:32.102Z,4.35
2023-05-21T21:19:20.987Z,4.13
2023-05-21T21:22:10.232Z,4.80
2023-05-21T21:24:59.052Z,4.55
2023-05-21T21:27:47.908Z,4.45
2023-05-21T21:30:39.802Z,4.20
2023-05-21T21:33:28.960Z,4.68
2023-05-21T21:36:17.785Z,4.40
2023-05-21T21:39:06.905Z,4.13
2023-05-21T21:41:55.939Z,4.28
2023-05-21T21:44:44.634Z,4.15
2023-05-21T21:47:35.006Z,4.20
2023-05-21T21:50:23.867Z,4.50
2023-05-21T21:53:14.176Z,4.80
2023-05-21T21:56:03.234Z,4.68
2023-05-21T21:58:52.057Z,4.53
2023-05-21T22:01:41.150Z,4.85
2023-05-21T22:04:31.381Z,4.95
2023-05-21T22:07:20.994Z,4.80
2023-05-21T22:10:10.812Z,5.13
2023-05-21T22:12:59.764Z,4.60
2023-05-21T22:15:49.157Z,5.10
2023-05-21T22:18:41.187Z,4.85
2023-05-21T22:21:33.110Z,4.80
2023-05-21T22:24:32.123Z,5.53
2023-05-21T22:27:22.145Z,5.20
2023-05-21T22:30:11.747Z,4.65
2023-05-21T22:33:01.179Z,4.60
2023-05-21T22:35:49.985Z,5.10
2023-05-21T22:38:40.133Z,5.22
2023-05-21T22:41:28.871Z,4.85
2023-05-21T22:44:17.759Z,4.90
2023-05-21T22:47:11.012Z,5.50
2023-05-21T22:50:01.024Z,4.88
2023-05-21T22:52:50.438Z,4.70
2023-05-21T22:55:40.944Z,4.40
2023-05-21T22:58:29.712Z,4.72
2023-05-21T23:01:18.635Z,5.20
2023-05-21T23:04:07.375Z,4.95
2023-05-21T23:06:56.117Z,4.63
2023-05-21T23:09:44.950Z,5.13
2023-05-21T23:12:35.576Z,4.40
2023-05-21T23:15:24.488Z,4.85
2023-05-21T23:18:13.302Z,4.75
2023-05-21T23:21:03.077Z,5.20
2023-05-21T23:23:51.777Z,4.57
2023-05-21T23:26:41.278Z,4.63
2023-05-21T23:29:32.030Z,5.45
2023-05-21T23:32:21.091Z,4.70
2023-05-21T23:35:11.752Z,4.65
2023-05-21T23:38:00.629Z,5.00
2023-05-21T23:40:49.506Z,4.60
2023-05-21T23:43:38.516Z,4.80
2023-05-21T23:46:28.706Z,4.50
2023-05-21T23:49:17.795Z,4.90
2023-05-21T23:52:07.285Z,4.78
2023-05-21T23:54:57.568Z,5.00
2023-05-21T23:57:46.695Z,4.90
